MRLL weather

Las Lomas Airport
Siquirres, Limon, Costa Rica

Public forecast

Using degrees Celsius for public forecast. Weather courtesy of forecast.io.

METAR (pilot weather report)

Closest report is Tobias Bolanos International Airport, 33.6 nm (62.1 km) WSW. Retrieved 2019/05/19 15:19 UTC (40 minutes ago):

MRPV 191519Z 30003KT CAVOK 27/18 A3001 NOSIG

TAF (pilot weather forecast)

Closest forecast is Tobias Bolanos International Airport, 33.6 nm (62.1 km) WSW. Retrieved 2019/05/19 12:30 UTC (3 hours ago):

TAF MRPV 191100Z 1912/2012 09007KT 9999 SCT030 SCT180 TX28/1918Z TN18/2010Z BECMG 1917/1919 26008KT TEMPO 1919/1921 5000 TSRA SCT020CB TEMPO 1921/2002 3000 RA BR BKN015 TEMPO 2003/2006 VRB02KT